This is the latest recevied weather packets stored in our database for station/object KORK. If no packets are shown the sender has not sent any weather packets the latest 1 day(s).
| Time | Temp. | Humidity | Pressure | Rain* | Wind** | Luminosity | Snow |
|---|---|---|---|---|---|---|---|
| 1778063617 | 10° C | 99% | 1011.9 hPa | - | - | - | - |
| 1778062417 | 10° C | 99% | 1011.2 hPa | - | - | - | - |
| 1778061220 | 10° C | 99% | 1011.2 hPa | - | - | - | - |
| 1778060742 | 10° C | 99% | 1011.2 hPa | - | - | - | - |
| 1778059417 | 10° C | 99% | 1010.5 hPa | - | - | - | - |
| 1778058220 | - | - | 1010.8 hPa | - | - | - | - |
| 1778057620 | 10.56° C | 93% | 1011.2 hPa | - | - | - | - |
| 1778057022 | 10.56° C | 93% | 1011.2 hPa | - | - | - | - |
| 1778056417 | 10.56° C | 93% | 1010.2 hPa | - | - | - | - |
| 1778055816 | 10.56° C | 93% | 1010.2 hPa | - | - | - | - |
| 1778055215 | 10.56° C | 100% | 1009.8 hPa | - | - | - | - |
| 1778054616 | 10.56° C | 100% | 1009.8 hPa | - | - | - | - |
| 1778053418 | 10.56° C | 100% | 1008.8 hPa | - | - | - | - |
| 1778052217 | 11.67° C | 100% | 1008.8 hPa | - | - | - | - |
| 1778051618 | 11.67° C | 100% | 1008.8 hPa | - | - | - | - |
| 1778051018 | 11.67° C | 100% | 1008.8 hPa | - | - | - | - |
| 1778049815 | 15.56° C | 93% | 1007.5 hPa | - | - | - | - |
| 1778049222 | 15.56° C | 93% | 1007.5 hPa | - | - | - | - |
| 1778048015 | 15.56° C | 93% | 1007.5 hPa | - | - | - | - |
| 1778046817 | 21.67° C | 94% | 1006.4 hPa | - | - | - | - |
| 1778045016 | 20.56° C | 100% | 1006.4 hPa | - | - | - | - |
| 1778044416 | 21.67° C | 94% | 1006.1 hPa | - | - | - | - |
| 1778043215 | 21.67° C | 94% | 1006.8 hPa | - | - | - | - |
| 1778042618 | 21.67° C | 94% | 1006.8 hPa | - | - | - | - |
| 1778042017 | 20.56° C | 100% | 1006.8 hPa | - | - | - | - |
* Rain since midnight (hover to see other rain measurements)
** Current wind speed in m/s (hover to see current wind gust speed)